sensor_id;sensor_type;location;lat;lon;timestamp;P1;durP1;ratioP1;P2;durP2;ratioP2
58260;SDS011;44058;52.898;6.502;2022-10-14T00:00:13;15.68;;;14.18;;
58260;SDS011;44058;52.898;6.502;2022-10-14T00:02:39;16.13;;;14.63;;
58260;SDS011;44058;52.898;6.502;2022-10-14T00:05:05;18.75;;;16.85;;
58260;SDS011;44058;52.898;6.502;2022-10-14T00:07:32;22.90;;;20.60;;
58260;SDS011;44058;52.898;6.502;2022-10-14T00:09:58;24.63;;;22.33;;
58260;SDS011;44058;52.898;6.502;2022-10-14T00:12:23;24.60;;;22.27;;
58260;SDS011;44058;52.898;6.502;2022-10-14T00:14:49;23.67;;;21.30;;
58260;SDS011;44058;52.898;6.502;2022-10-14T00:17:15;22.95;;;20.67;;
58260;SDS011;44058;52.898;6.502;2022-10-14T00:19:41;23.58;;;21.23;;
58260;SDS011;44058;52.898;6.502;2022-10-14T00:22:06;22.52;;;20.23;;
58260;SDS011;44058;52.898;6.502;2022-10-14T00:24:32;22.40;;;19.92;;
58260;SDS011;44058;52.898;6.502;2022-10-14T00:26:58;27.75;;;21.02;;
58260;SDS011;44058;52.898;6.502;2022-10-14T00:29:23;59.35;;;20.42;;
58260;SDS011;44058;52.898;6.502;2022-10-14T00:31:49;84.63;;;20.08;;
58260;SDS011;44058;52.898;6.502;2022-10-14T00:34:16;82.93;;;18.83;;
58260;SDS011;44058;52.898;6.502;2022-10-14T00:36:43;18.63;;;14.85;;
58260;SDS011;44058;52.898;6.502;2022-10-14T00:39:09;81.75;;;16.63;;
58260;SDS011;44058;52.898;6.502;2022-10-14T00:41:35;100.40;;;16.00;;
58260;SDS011;44058;52.898;6.502;2022-10-14T00:49:30;69.90;;;14.80;;
58260;SDS011;44058;52.898;6.502;2022-10-14T00:52:02;49.35;;;13.30;;
58260;SDS011;44058;52.898;6.502;2022-10-14T00:54:40;80.30;;;14.43;;
58260;SDS011;44058;52.898;6.502;2022-10-14T00:57:09;36.75;;;13.20;;
58260;SDS011;44058;52.898;6.502;2022-10-14T00:59:35;42.67;;;13.93;;
58260;SDS011;44058;52.898;6.502;2022-10-14T01:02:02;53.78;;;13.18;;
58260;SDS011;44058;52.898;6.502;2022-10-14T01:04:28;25.02;;;14.18;;
58260;SDS011;44058;52.898;6.502;2022-10-14T01:09:46;35.33;;;12.82;;
58260;SDS011;44058;52.898;6.502;2022-10-14T01:12:30;103.07;;;20.02;;
58260;SDS011;44058;52.898;6.502;2022-10-14T01:21:05;13.52;;;12.48;;
58260;SDS011;44058;52.898;6.502;2022-10-14T01:23:59;14.10;;;12.82;;
58260;SDS011;44058;52.898;6.502;2022-10-14T01:32:15;75.50;;;18.90;;
58260;SDS011;44058;52.898;6.502;2022-10-14T01:35:13;75.95;;;20.88;;
58260;SDS011;44058;52.898;6.502;2022-10-14T01:37:36;45.30;;;16.67;;
58260;SDS011;44058;52.898;6.502;2022-10-14T01:40:07;30.48;;;15.50;;
58260;SDS011;44058;52.898;6.502;2022-10-14T01:42:41;90.63;;;23.60;;
58260;SDS011;44058;52.898;6.502;2022-10-14T01:45:14;137.35;;;26.52;;
58260;SDS011;44058;52.898;6.502;2022-10-14T01:47:45;164.77;;;30.48;;
58260;SDS011;44058;52.898;6.502;2022-10-14T01:50:17;52.70;;;19.27;;
58260;SDS011;44058;52.898;6.502;2022-10-14T01:52:56;286.80;;;31.13;;
58260;SDS011;44058;52.898;6.502;2022-10-14T01:55:26;30.52;;;15.98;;
58260;SDS011;44058;52.898;6.502;2022-10-14T01:57:54;70.57;;;18.05;;
58260;SDS011;44058;52.898;6.502;2022-10-14T02:00:22;44.17;;;14.70;;
58260;SDS011;44058;52.898;6.502;2022-10-14T02:02:48;26.10;;;15.20;;
58260;SDS011;44058;52.898;6.502;2022-10-14T02:06:00;22.33;;;14.85;;
58260;SDS011;44058;52.898;6.502;2022-10-14T02:08:04;19.20;;;13.05;;
58260;SDS011;44058;52.898;6.502;2022-10-14T02:21:36;30.90;;;12.85;;
58260;SDS011;44058;52.898;6.502;2022-10-14T02:24:19;184.57;;;19.52;;
58260;SDS011;44058;52.898;6.502;2022-10-14T02:26:48;76.22;;;15.15;;
58260;SDS011;44058;52.898;6.502;2022-10-14T02:29:17;25.70;;;10.80;;
58260;SDS011;44058;52.898;6.502;2022-10-14T02:31:44;47.42;;;12.48;;
58260;SDS011;44058;52.898;6.502;2022-10-14T02:34:15;77.80;;;15.75;;
58260;SDS011;44058;52.898;6.502;2022-10-14T02:36:43;36.40;;;14.02;;
58260;SDS011;44058;52.898;6.502;2022-10-14T02:39:13;23.30;;;14.07;;
58260;SDS011;44058;52.898;6.502;2022-10-14T02:41:43;19.98;;;13.20;;
58260;SDS011;44058;52.898;6.502;2022-10-14T02:44:09;35.58;;;14.73;;
58260;SDS011;44058;52.898;6.502;2022-10-14T02:46:35;22.70;;;13.18;;
58260;SDS011;44058;52.898;6.502;2022-10-14T02:49:03;172.23;;;20.48;;
58260;SDS011;44058;52.898;6.502;2022-10-14T02:51:29;53.30;;;13.80;;
58260;SDS011;44058;52.898;6.502;2022-10-14T02:53:55;46.40;;;15.13;;
58260;SDS011;44058;52.898;6.502;2022-10-14T02:56:22;48.42;;;12.35;;
58260;SDS011;44058;52.898;6.502;2022-10-14T02:58:48;54.20;;;14.65;;
58260;SDS011;44058;52.898;6.502;2022-10-14T03:01:14;111.63;;;19.77;;
58260;SDS011;44058;52.898;6.502;2022-10-14T03:03:39;168.68;;;21.80;;
58260;SDS011;44058;52.898;6.502;2022-10-14T03:06:05;122.28;;;17.90;;
58260;SDS011;44058;52.898;6.502;2022-10-14T03:08:31;112.00;;;17.75;;
58260;SDS011;44058;52.898;6.502;2022-10-14T03:10:57;54.35;;;15.13;;
58260;SDS011;44058;52.898;6.502;2022-10-14T03:13:23;58.15;;;14.45;;
58260;SDS011;44058;52.898;6.502;2022-10-14T03:15:49;28.52;;;12.48;;
58260;SDS011;44058;52.898;6.502;2022-10-14T03:18:15;85.20;;;16.60;;
58260;SDS011;44058;52.898;6.502;2022-10-14T03:20:44;53.17;;;13.93;;
58260;SDS011;44058;52.898;6.502;2022-10-14T03:23:10;125.07;;;18.50;;
58260;SDS011;44058;52.898;6.502;2022-10-14T03:25:37;22.13;;;13.05;;
58260;SDS011;44058;52.898;6.502;2022-10-14T03:28:03;71.95;;;14.80;;
58260;SDS011;44058;52.898;6.502;2022-10-14T03:30:29;53.35;;;12.80;;
58260;SDS011;44058;52.898;6.502;2022-10-14T03:32:54;57.00;;;13.82;;
58260;SDS011;44058;52.898;6.502;2022-10-14T03:35:20;95.07;;;17.13;;
58260;SDS011;44058;52.898;6.502;2022-10-14T03:37:46;53.55;;;14.85;;
58260;SDS011;44058;52.898;6.502;2022-10-14T03:40:12;170.55;;;24.10;;
58260;SDS011;44058;52.898;6.502;2022-10-14T03:42:40;34.80;;;16.20;;
58260;SDS011;44058;52.898;6.502;2022-10-14T03:45:06;112.68;;;23.75;;
58260;SDS011;44058;52.898;6.502;2022-10-14T03:47:32;116.15;;;23.67;;
58260;SDS011;44058;52.898;6.502;2022-10-14T03:49:58;70.88;;;22.02;;
58260;SDS011;44058;52.898;6.502;2022-10-14T03:52:25;42.17;;;19.02;;
58260;SDS011;44058;52.898;6.502;2022-10-14T03:54:51;64.47;;;21.88;;
58260;SDS011;44058;52.898;6.502;2022-10-14T03:57:17;33.78;;;19.40;;
58260;SDS011;44058;52.898;6.502;2022-10-14T03:59:42;37.97;;;21.10;;
58260;SDS011;44058;52.898;6.502;2022-10-14T04:02:08;47.08;;;22.05;;
58260;SDS011;44058;52.898;6.502;2022-10-14T04:04:33;64.95;;;23.50;;
58260;SDS011;44058;52.898;6.502;2022-10-14T04:06:59;46.25;;;22.17;;
58260;SDS011;44058;52.898;6.502;2022-10-14T04:09:25;38.90;;;21.83;;
58260;SDS011;44058;52.898;6.502;2022-10-14T04:11:51;43.47;;;21.63;;
58260;SDS011;44058;52.898;6.502;2022-10-14T04:14:17;45.35;;;19.40;;
58260;SDS011;44058;52.898;6.502;2022-10-14T04:16:43;48.40;;;18.60;;
58260;SDS011;44058;52.898;6.502;2022-10-14T04:19:08;42.15;;;19.15;;
58260;SDS011;44058;52.898;6.502;2022-10-14T04:21:34;85.90;;;20.15;;
58260;SDS011;44058;52.898;6.502;2022-10-14T04:24:00;80.57;;;20.17;;
58260;SDS011;44058;52.898;6.502;2022-10-14T04:26:25;127.75;;;25.77;;
58260;SDS011;44058;52.898;6.502;2022-10-14T04:28:51;140.50;;;26.95;;
58260;SDS011;44058;52.898;6.502;2022-10-14T04:31:17;35.05;;;20.38;;
58260;SDS011;44058;52.898;6.502;2022-10-14T04:33:42;71.40;;;24.25;;
58260;SDS011;44058;52.898;6.502;2022-10-14T04:36:08;46.83;;;22.15;;
58260;SDS011;44058;52.898;6.502;2022-10-14T04:38:34;26.20;;;20.27;;
58260;SDS011;44058;52.898;6.502;2022-10-14T04:41:00;99.90;;;28.00;;
58260;SDS011;44058;52.898;6.502;2022-10-14T04:43:26;125.65;;;29.50;;
58260;SDS011;44058;52.898;6.502;2022-10-14T04:45:52;141.65;;;30.23;;
58260;SDS011;44058;52.898;6.502;2022-10-14T04:48:18;164.88;;;34.00;;
58260;SDS011;44058;52.898;6.502;2022-10-14T04:50:44;108.85;;;30.05;;
58260;SDS011;44058;52.898;6.502;2022-10-14T04:53:09;68.18;;;27.10;;
58260;SDS011;44058;52.898;6.502;2022-10-14T04:55:36;87.22;;;28.52;;
58260;SDS011;44058;52.898;6.502;2022-10-14T04:58:01;90.72;;;28.33;;
58260;SDS011;44058;52.898;6.502;2022-10-14T05:00:27;57.50;;;25.85;;
58260;SDS011;44058;52.898;6.502;2022-10-14T05:02:53;91.68;;;30.48;;
58260;SDS011;44058;52.898;6.502;2022-10-14T05:05:19;107.75;;;30.13;;
58260;SDS011;44058;52.898;6.502;2022-10-14T05:07:45;111.72;;;31.30;;
58260;SDS011;44058;52.898;6.502;2022-10-14T05:10:10;63.00;;;26.25;;
58260;SDS011;44058;52.898;6.502;2022-10-14T05:12:37;81.70;;;28.63;;
58260;SDS011;44058;52.898;6.502;2022-10-14T05:15:03;122.30;;;32.90;;
58260;SDS011;44058;52.898;6.502;2022-10-14T05:17:30;111.18;;;29.52;;
58260;SDS011;44058;52.898;6.502;2022-10-14T05:19:56;142.27;;;33.38;;
58260;SDS011;44058;52.898;6.502;2022-10-14T05:22:22;115.47;;;32.47;;
58260;SDS011;44058;52.898;6.502;2022-10-14T05:24:49;90.70;;;31.38;;
58260;SDS011;44058;52.898;6.502;2022-10-14T05:27:15;63.53;;;29.45;;
58260;SDS011;44058;52.898;6.502;2022-10-14T05:29:40;138.27;;;35.55;;
58260;SDS011;44058;52.898;6.502;2022-10-14T05:32:06;132.20;;;35.35;;
58260;SDS011;44058;52.898;6.502;2022-10-14T05:34:32;111.25;;;33.10;;
58260;SDS011;44058;52.898;6.502;2022-10-14T05:36:59;89.50;;;29.80;;
58260;SDS011;44058;52.898;6.502;2022-10-14T05:39:24;101.25;;;30.42;;
58260;SDS011;44058;52.898;6.502;2022-10-14T05:41:51;94.78;;;31.00;;
58260;SDS011;44058;52.898;6.502;2022-10-14T05:44:16;79.28;;;29.13;;
58260;SDS011;44058;52.898;6.502;2022-10-14T05:46:42;131.73;;;29.55;;
58260;SDS011;44058;52.898;6.502;2022-10-14T05:49:09;103.03;;;26.85;;
58260;SDS011;44058;52.898;6.502;2022-10-14T05:51:35;138.52;;;30.00;;
58260;SDS011;44058;52.898;6.502;2022-10-14T05:54:01;188.98;;;34.00;;
58260;SDS011;44058;52.898;6.502;2022-10-14T05:56:27;71.10;;;25.50;;
58260;SDS011;44058;52.898;6.502;2022-10-14T05:58:52;215.50;;;36.53;;
58260;SDS011;44058;52.898;6.502;2022-10-14T06:01:18;134.90;;;30.17;;
58260;SDS011;44058;52.898;6.502;2022-10-14T06:03:44;163.75;;;32.75;;
58260;SDS011;44058;52.898;6.502;2022-10-14T06:06:13;212.52;;;38.10;;
58260;SDS011;44058;52.898;6.502;2022-10-14T06:08:39;80.95;;;30.95;;
58260;SDS011;44058;52.898;6.502;2022-10-14T06:11:05;119.93;;;33.35;;
58260;SDS011;44058;52.898;6.502;2022-10-14T06:13:32;77.30;;;30.88;;
58260;SDS011;44058;52.898;6.502;2022-10-14T06:16:05;162.30;;;38.28;;
58260;SDS011;44058;52.898;6.502;2022-10-14T06:18:32;66.85;;;30.38;;
58260;SDS011;44058;52.898;6.502;2022-10-14T06:20:59;76.63;;;32.20;;
58260;SDS011;44058;52.898;6.502;2022-10-14T06:23:25;100.57;;;35.33;;
58260;SDS011;44058;52.898;6.502;2022-10-14T06:25:51;84.50;;;34.67;;
58260;SDS011;44058;52.898;6.502;2022-10-14T06:28:17;57.13;;;29.38;;
58260;SDS011;44058;52.898;6.502;2022-10-14T06:30:49;99.60;;;34.03;;
58260;SDS011;44058;52.898;6.502;2022-10-14T06:33:15;107.93;;;36.53;;
58260;SDS011;44058;52.898;6.502;2022-10-14T06:35:41;90.28;;;33.47;;
58260;SDS011;44058;52.898;6.502;2022-10-14T06:38:07;216.70;;;41.38;;
58260;SDS011;44058;52.898;6.502;2022-10-14T06:40:32;207.05;;;43.97;;
58260;SDS011;44058;52.898;6.502;2022-10-14T06:43:00;202.25;;;44.72;;
58260;SDS011;44058;52.898;6.502;2022-10-14T06:45:26;187.95;;;45.63;;
58260;SDS011;44058;52.898;6.502;2022-10-14T06:47:51;93.00;;;38.63;;
58260;SDS011;44058;52.898;6.502;2022-10-14T06:50:17;103.32;;;39.65;;
58260;SDS011;44058;52.898;6.502;2022-10-14T06:52:46;90.60;;;39.33;;
58260;SDS011;44058;52.898;6.502;2022-10-14T06:55:12;106.90;;;41.88;;
58260;SDS011;44058;52.898;6.502;2022-10-14T06:57:39;108.97;;;43.25;;
58260;SDS011;44058;52.898;6.502;2022-10-14T07:00:05;108.65;;;42.78;;
58260;SDS011;44058;52.898;6.502;2022-10-14T07:02:32;90.43;;;39.38;;
58260;SDS011;44058;52.898;6.502;2022-10-14T07:04:57;111.68;;;43.22;;
58260;SDS011;44058;52.898;6.502;2022-10-14T07:07:23;109.40;;;43.97;;
58260;SDS011;44058;52.898;6.502;2022-10-14T07:09:49;78.70;;;37.58;;
58260;SDS011;44058;52.898;6.502;2022-10-14T07:12:14;77.60;;;38.42;;
58260;SDS011;44058;52.898;6.502;2022-10-14T07:14:40;120.38;;;43.85;;
58260;SDS011;44058;52.898;6.502;2022-10-14T07:17:06;114.93;;;44.35;;
58260;SDS011;44058;52.898;6.502;2022-10-14T07:19:33;80.63;;;39.58;;
58260;SDS011;44058;52.898;6.502;2022-10-14T07:21:59;78.95;;;37.38;;
58260;SDS011;44058;52.898;6.502;2022-10-14T07:24:24;82.72;;;38.28;;
58260;SDS011;44058;52.898;6.502;2022-10-14T07:26:50;59.63;;;31.55;;
58260;SDS011;44058;52.898;6.502;2022-10-14T07:29:16;63.13;;;32.22;;
58260;SDS011;44058;52.898;6.502;2022-10-14T07:31:42;57.10;;;30.95;;
58260;SDS011;44058;52.898;6.502;2022-10-14T07:34:08;45.92;;;27.58;;
58260;SDS011;44058;52.898;6.502;2022-10-14T07:36:33;43.75;;;27.98;;
58260;SDS011;44058;52.898;6.502;2022-10-14T07:38:59;46.38;;;28.52;;
58260;SDS011;44058;52.898;6.502;2022-10-14T07:41:26;46.85;;;27.95;;
58260;SDS011;44058;52.898;6.502;2022-10-14T07:43:58;42.20;;;26.55;;
58260;SDS011;44058;52.898;6.502;2022-10-14T07:46:31;47.28;;;27.65;;
58260;SDS011;44058;52.898;6.502;2022-10-14T07:49:04;41.30;;;26.13;;
58260;SDS011;44058;52.898;6.502;2022-10-14T07:51:32;48.25;;;27.63;;
58260;SDS011;44058;52.898;6.502;2022-10-14T07:53:59;51.20;;;29.85;;
58260;SDS011;44058;52.898;6.502;2022-10-14T07:56:26;48.35;;;28.45;;
58260;SDS011;44058;52.898;6.502;2022-10-14T07:58:53;50.05;;;30.35;;
58260;SDS011;44058;52.898;6.502;2022-10-14T08:01:19;43.97;;;28.48;;
58260;SDS011;44058;52.898;6.502;2022-10-14T08:03:46;48.95;;;30.50;;
58260;SDS011;44058;52.898;6.502;2022-10-14T08:06:12;45.75;;;29.92;;
58260;SDS011;44058;52.898;6.502;2022-10-14T08:08:38;43.95;;;28.48;;
58260;SDS011;44058;52.898;6.502;2022-10-14T08:11:18;46.85;;;29.83;;
58260;SDS011;44058;52.898;6.502;2022-10-14T08:13:52;45.45;;;28.55;;
58260;SDS011;44058;52.898;6.502;2022-10-14T08:16:22;45.90;;;29.13;;
58260;SDS011;44058;52.898;6.502;2022-10-14T08:18:50;42.03;;;27.80;;
58260;SDS011;44058;52.898;6.502;2022-10-14T08:21:17;47.50;;;30.48;;
58260;SDS011;44058;52.898;6.502;2022-10-14T08:23:45;44.15;;;28.75;;
58260;SDS011;44058;52.898;6.502;2022-10-14T08:26:47;49.47;;;29.60;;
58260;SDS011;44058;52.898;6.502;2022-10-14T08:29:05;50.75;;;30.58;;
58260;SDS011;44058;52.898;6.502;2022-10-14T08:31:33;49.78;;;30.17;;
58260;SDS011;44058;52.898;6.502;2022-10-14T08:33:59;52.58;;;30.85;;
58260;SDS011;44058;52.898;6.502;2022-10-14T08:36:25;44.17;;;29.10;;
58260;SDS011;44058;52.898;6.502;2022-10-14T08:38:51;44.10;;;28.13;;
58260;SDS011;44058;52.898;6.502;2022-10-14T08:46:49;45.38;;;29.98;;
58260;SDS011;44058;52.898;6.502;2022-10-14T08:53:10;55.50;;;32.65;;
58260;SDS011;44058;52.898;6.502;2022-10-14T08:57:58;43.88;;;27.92;;
58260;SDS011;44058;52.898;6.502;2022-10-14T09:00:40;52.88;;;31.58;;
58260;SDS011;44058;52.898;6.502;2022-10-14T09:03:14;51.60;;;30.95;;
58260;SDS011;44058;52.898;6.502;2022-10-14T09:06:01;53.08;;;32.25;;
58260;SDS011;44058;52.898;6.502;2022-10-14T09:11:02;44.30;;;30.05;;
58260;SDS011;44058;52.898;6.502;2022-10-14T09:13:30;60.65;;;35.28;;
58260;SDS011;44058;52.898;6.502;2022-10-14T09:16:08;59.97;;;33.83;;
58260;SDS011;44058;52.898;6.502;2022-10-14T09:18:53;56.65;;;32.25;;
58260;SDS011;44058;52.898;6.502;2022-10-14T09:21:29;49.80;;;30.40;;
58260;SDS011;44058;52.898;6.502;2022-10-14T09:24:01;56.65;;;32.05;;
58260;SDS011;44058;52.898;6.502;2022-10-14T09:26:41;59.20;;;32.78;;
58260;SDS011;44058;52.898;6.502;2022-10-14T09:29:30;54.45;;;31.02;;
58260;SDS011;44058;52.898;6.502;2022-10-14T09:32:11;42.90;;;28.17;;
58260;SDS011;44058;52.898;6.502;2022-10-14T09:34:40;51.13;;;29.77;;
58260;SDS011;44058;52.898;6.502;2022-10-14T09:37:21;49.28;;;29.77;;
58260;SDS011;44058;52.898;6.502;2022-10-14T09:40:57;53.67;;;30.67;;
58260;SDS011;44058;52.898;6.502;2022-10-14T09:48:27;55.42;;;30.30;;
58260;SDS011;44058;52.898;6.502;2022-10-14T09:53:30;49.75;;;27.45;;
58260;SDS011;44058;52.898;6.502;2022-10-14T09:55:59;51.25;;;28.85;;
58260;SDS011;44058;52.898;6.502;2022-10-14T10:01:34;56.05;;;28.42;;
58260;SDS011;44058;52.898;6.502;2022-10-14T10:04:24;50.47;;;27.08;;
58260;SDS011;44058;52.898;6.502;2022-10-14T10:06:52;49.63;;;27.48;;
58260;SDS011;44058;52.898;6.502;2022-10-14T10:09:18;43.53;;;24.88;;
58260;SDS011;44058;52.898;6.502;2022-10-14T10:11:45;47.17;;;26.83;;
58260;SDS011;44058;52.898;6.502;2022-10-14T10:14:27;55.88;;;28.15;;
58260;SDS011;44058;52.898;6.502;2022-10-14T10:19:35;52.67;;;29.48;;
58260;SDS011;44058;52.898;6.502;2022-10-14T10:22:26;37.85;;;24.17;;
58260;SDS011;44058;52.898;6.502;2022-10-14T10:27:33;54.03;;;29.10;;
58260;SDS011;44058;52.898;6.502;2022-10-14T10:35:56;56.60;;;28.20;;
58260;SDS011;44058;52.898;6.502;2022-10-14T10:38:56;46.03;;;25.52;;
58260;SDS011;44058;52.898;6.502;2022-10-14T10:44:18;49.67;;;24.65;;
58260;SDS011;44058;52.898;6.502;2022-10-14T10:47:08;38.10;;;22.00;;
58260;SDS011;44058;52.898;6.502;2022-10-14T10:50:24;42.88;;;21.80;;
58260;SDS011;44058;52.898;6.502;2022-10-14T10:55:38;42.10;;;20.95;;
58260;SDS011;44058;52.898;6.502;2022-10-14T11:01:00;38.28;;;20.65;;
58260;SDS011;44058;52.898;6.502;2022-10-14T11:06:32;34.25;;;19.17;;
58260;SDS011;44058;52.898;6.502;2022-10-14T11:09:33;35.45;;;19.13;;
58260;SDS011;44058;52.898;6.502;2022-10-14T11:12:27;36.53;;;19.35;;
58260;SDS011;44058;52.898;6.502;2022-10-14T11:15:09;31.88;;;19.02;;
58260;SDS011;44058;52.898;6.502;2022-10-14T11:25:45;36.08;;;19.77;;
58260;SDS011;44058;52.898;6.502;2022-10-14T11:28:26;32.65;;;19.63;;
58260;SDS011;44058;52.898;6.502;2022-10-14T11:39:30;38.05;;;21.17;;
58260;SDS011;44058;52.898;6.502;2022-10-14T11:44:38;44.65;;;25.02;;
58260;SDS011;44058;52.898;6.502;2022-10-14T11:47:08;43.22;;;24.25;;
58260;SDS011;44058;52.898;6.502;2022-10-14T11:49:46;45.85;;;26.02;;
58260;SDS011;44058;52.898;6.502;2022-10-14T11:52:38;47.58;;;26.63;;
58260;SDS011;44058;52.898;6.502;2022-10-14T11:55:23;51.38;;;29.67;;
58260;SDS011;44058;52.898;6.502;2022-10-14T12:00:30;58.38;;;30.88;;
58260;SDS011;44058;52.898;6.502;2022-10-14T12:05:58;51.47;;;30.35;;
58260;SDS011;44058;52.898;6.502;2022-10-14T12:08:35;75.13;;;37.05;;
58260;SDS011;44058;52.898;6.502;2022-10-14T12:14:05;64.25;;;36.03;;
58260;SDS011;44058;52.898;6.502;2022-10-14T12:16:42;94.10;;;40.67;;
58260;SDS011;44058;52.898;6.502;2022-10-14T12:19:10;74.13;;;38.50;;
58260;SDS011;44058;52.898;6.502;2022-10-14T12:21:42;84.38;;;39.45;;
58260;SDS011;44058;52.898;6.502;2022-10-14T12:24:18;86.50;;;41.30;;
58260;SDS011;44058;52.898;6.502;2022-10-14T12:26:50;84.70;;;40.60;;
58260;SDS011;44058;52.898;6.502;2022-10-14T12:29:26;62.58;;;36.10;;
58260;SDS011;44058;52.898;6.502;2022-10-14T12:34:32;87.93;;;41.83;;
58260;SDS011;44058;52.898;6.502;2022-10-14T12:43:13;79.38;;;39.88;;
58260;SDS011;44058;52.898;6.502;2022-10-14T12:45:17;88.18;;;40.30;;
58260;SDS011;44058;52.898;6.502;2022-10-14T12:47:46;63.70;;;35.10;;
58260;SDS011;44058;52.898;6.502;2022-10-14T12:50:40;83.25;;;40.03;;
58260;SDS011;44058;52.898;6.502;2022-10-14T12:53:16;65.88;;;35.90;;
58260;SDS011;44058;52.898;6.502;2022-10-14T12:55:52;54.80;;;32.45;;
58260;SDS011;44058;52.898;6.502;2022-10-14T12:58:22;61.08;;;33.30;;
58260;SDS011;44058;52.898;6.502;2022-10-14T13:01:26;61.05;;;33.88;;
58260;SDS011;44058;52.898;6.502;2022-10-14T13:03:55;47.50;;;29.15;;
58260;SDS011;44058;52.898;6.502;2022-10-14T13:14:26;35.33;;;25.60;;
58260;SDS011;44058;52.898;6.502;2022-10-14T13:22:44;26.17;;;21.60;;
58260;SDS011;44058;52.898;6.502;2022-10-14T13:25:00;23.08;;;20.23;;
58260;SDS011;44058;52.898;6.502;2022-10-14T13:30:15;19.80;;;17.77;;
58260;SDS011;44058;52.898;6.502;2022-10-14T13:32:57;17.33;;;15.63;;
58260;SDS011;44058;52.898;6.502;2022-10-14T13:35:52;17.00;;;15.40;;
58260;SDS011;44058;52.898;6.502;2022-10-14T13:38:24;16.77;;;15.27;;
58260;SDS011;44058;52.898;6.502;2022-10-14T13:40:51;16.23;;;14.80;;
58260;SDS011;44058;52.898;6.502;2022-10-14T13:46:15;15.60;;;14.20;;
58260;SDS011;44058;52.898;6.502;2022-10-14T13:48:50;14.82;;;13.52;;
58260;SDS011;44058;52.898;6.502;2022-10-14T13:53:55;16.42;;;15.02;;
58260;SDS011;44058;52.898;6.502;2022-10-14T13:56:23;16.50;;;14.98;;
58260;SDS011;44058;52.898;6.502;2022-10-14T13:58:49;17.17;;;15.57;;
58260;SDS011;44058;52.898;6.502;2022-10-14T14:01:16;18.00;;;16.20;;
58260;SDS011;44058;52.898;6.502;2022-10-14T14:03:44;17.95;;;16.35;;
58260;SDS011;44058;52.898;6.502;2022-10-14T14:06:15;17.63;;;15.93;;
58260;SDS011;44058;52.898;6.502;2022-10-14T14:08:45;16.53;;;15.03;;
58260;SDS011;44058;52.898;6.502;2022-10-14T14:11:32;16.67;;;15.05;;
58260;SDS011;44058;52.898;6.502;2022-10-14T14:16:52;17.00;;;15.35;;
58260;SDS011;44058;52.898;6.502;2022-10-14T14:19:21;19.38;;;17.38;;
58260;SDS011;44058;52.898;6.502;2022-10-14T14:21:50;17.77;;;16.17;;
58260;SDS011;44058;52.898;6.502;2022-10-14T14:24:17;20.40;;;18.50;;
58260;SDS011;44058;52.898;6.502;2022-10-14T14:26:47;19.20;;;17.35;;
58260;SDS011;44058;52.898;6.502;2022-10-14T14:29:19;18.27;;;16.42;;
58260;SDS011;44058;52.898;6.502;2022-10-14T14:31:46;16.85;;;15.25;;
58260;SDS011;44058;52.898;6.502;2022-10-14T14:34:14;18.88;;;16.85;;
58260;SDS011;44058;52.898;6.502;2022-10-14T14:36:44;18.65;;;16.77;;
58260;SDS011;44058;52.898;6.502;2022-10-14T14:39:21;16.98;;;15.45;;
58260;SDS011;44058;52.898;6.502;2022-10-14T14:41:50;16.23;;;14.70;;
58260;SDS011;44058;52.898;6.502;2022-10-14T14:44:27;17.58;;;15.88;;
58260;SDS011;44058;52.898;6.502;2022-10-14T14:46:57;16.02;;;14.63;;
58260;SDS011;44058;52.898;6.502;2022-10-14T14:49:27;16.80;;;15.10;;
58260;SDS011;44058;52.898;6.502;2022-10-14T14:51:55;18.05;;;16.15;;
58260;SDS011;44058;52.898;6.502;2022-10-14T14:54:23;18.50;;;16.70;;
58260;SDS011;44058;52.898;6.502;2022-10-14T14:57:10;18.65;;;16.75;;
58260;SDS011;44058;52.898;6.502;2022-10-14T14:59:39;16.67;;;15.20;;
58260;SDS011;44058;52.898;6.502;2022-10-14T15:02:14;17.83;;;16.15;;
58260;SDS011;44058;52.898;6.502;2022-10-14T15:04:41;17.30;;;15.73;;
58260;SDS011;44058;52.898;6.502;2022-10-14T15:07:15;16.70;;;14.95;;
58260;SDS011;44058;52.898;6.502;2022-10-14T15:09:43;16.85;;;15.38;;
58260;SDS011;44058;52.898;6.502;2022-10-14T15:12:15;17.30;;;15.63;;
58260;SDS011;44058;52.898;6.502;2022-10-14T15:19:54;16.83;;;15.23;;
58260;SDS011;44058;52.898;6.502;2022-10-14T15:22:40;17.33;;;15.73;;
58260;SDS011;44058;52.898;6.502;2022-10-14T15:25:11;18.33;;;16.58;;
58260;SDS011;44058;52.898;6.502;2022-10-14T15:33:18;18.40;;;16.50;;
58260;SDS011;44058;52.898;6.502;2022-10-14T15:35:46;18.38;;;16.50;;
58260;SDS011;44058;52.898;6.502;2022-10-14T15:38:19;17.75;;;15.95;;
58260;SDS011;44058;52.898;6.502;2022-10-14T15:40:45;16.75;;;15.23;;
58260;SDS011;44058;52.898;6.502;2022-10-14T15:43:16;16.17;;;14.73;;
58260;SDS011;44058;52.898;6.502;2022-10-14T15:45:50;17.77;;;15.93;;
58260;SDS011;44058;52.898;6.502;2022-10-14T15:48:48;16.70;;;15.10;;
58260;SDS011;44058;52.898;6.502;2022-10-14T15:51:16;17.45;;;15.75;;
58260;SDS011;44058;52.898;6.502;2022-10-14T15:53:43;17.95;;;16.17;;
58260;SDS011;44058;52.898;6.502;2022-10-14T15:56:10;18.52;;;16.63;;
58260;SDS011;44058;52.898;6.502;2022-10-14T15:58:36;17.30;;;15.65;;
58260;SDS011;44058;52.898;6.502;2022-10-14T16:01:02;17.88;;;16.17;;
58260;SDS011;44058;52.898;6.502;2022-10-14T16:03:30;17.05;;;15.45;;
58260;SDS011;44058;52.898;6.502;2022-10-14T16:05:57;18.00;;;16.25;;
58260;SDS011;44058;52.898;6.502;2022-10-14T16:08:24;16.98;;;15.27;;
58260;SDS011;44058;52.898;6.502;2022-10-14T16:10:50;14.57;;;13.27;;
58260;SDS011;44058;52.898;6.502;2022-10-14T16:13:18;16.75;;;15.15;;
58260;SDS011;44058;52.898;6.502;2022-10-14T16:15:53;15.57;;;14.07;;
58260;SDS011;44058;52.898;6.502;2022-10-14T16:18:22;15.55;;;13.95;;
58260;SDS011;44058;52.898;6.502;2022-10-14T16:20:49;16.30;;;14.60;;
58260;SDS011;44058;52.898;6.502;2022-10-14T16:23:19;13.68;;;12.57;;
58260;SDS011;44058;52.898;6.502;2022-10-14T16:25:47;15.25;;;13.70;;
58260;SDS011;44058;52.898;6.502;2022-10-14T16:28:14;16.10;;;14.48;;
58260;SDS011;44058;52.898;6.502;2022-10-14T16:30:45;19.52;;;15.32;;
58260;SDS011;44058;52.898;6.502;2022-10-14T16:33:18;12.65;;;11.65;;
58260;SDS011;44058;52.898;6.502;2022-10-14T16:35:48;13.30;;;12.23;;
58260;SDS011;44058;52.898;6.502;2022-10-14T16:38:15;15.95;;;14.45;;
58260;SDS011;44058;52.898;6.502;2022-10-14T16:40:41;12.32;;;11.23;;
58260;SDS011;44058;52.898;6.502;2022-10-14T16:43:07;10.23;;;9.20;;
58260;SDS011;44058;52.898;6.502;2022-10-14T16:45:34;7.40;;;6.80;;
58260;SDS011;44058;52.898;6.502;2022-10-14T16:48:00;6.15;;;5.65;;
58260;SDS011;44058;52.898;6.502;2022-10-14T16:50:26;5.80;;;5.28;;
58260;SDS011;44058;52.898;6.502;2022-10-14T16:52:52;5.72;;;5.20;;
58260;SDS011;44058;52.898;6.502;2022-10-14T16:55:36;5.75;;;5.25;;
58260;SDS011;44058;52.898;6.502;2022-10-14T16:58:04;7.20;;;6.32;;
58260;SDS011;44058;52.898;6.502;2022-10-14T17:00:30;6.88;;;6.28;;
58260;SDS011;44058;52.898;6.502;2022-10-14T17:02:56;6.60;;;6.13;;
58260;SDS011;44058;52.898;6.502;2022-10-14T17:05:21;7.88;;;7.18;;
58260;SDS011;44058;52.898;6.502;2022-10-14T17:07:47;8.57;;;7.68;;